sensor_id;sensor_type;location;lat;lon;timestamp;P1;durP1;ratioP1;P2;durP2;ratioP2
31660;SDS011;18267;52.234;7.444;2023-02-16T00:01:12;36.95;;;15.38;;
31660;SDS011;18267;52.234;7.444;2023-02-16T00:03:49;33.85;;;13.75;;
31660;SDS011;18267;52.234;7.444;2023-02-16T00:06:16;36.13;;;14.82;;
31660;SDS011;18267;52.234;7.444;2023-02-16T00:08:44;38.10;;;14.77;;
31660;SDS011;18267;52.234;7.444;2023-02-16T00:11:18;30.20;;;14.07;;
31660;SDS011;18267;52.234;7.444;2023-02-16T00:14:07;39.20;;;15.50;;
31660;SDS011;18267;52.234;7.444;2023-02-16T00:16:34;38.67;;;15.18;;
31660;SDS011;18267;52.234;7.444;2023-02-16T00:19:00;40.13;;;15.73;;
31660;SDS011;18267;52.234;7.444;2023-02-16T00:21:26;38.25;;;16.33;;
31660;SDS011;18267;52.234;7.444;2023-02-16T00:23:51;41.83;;;16.75;;
31660;SDS011;18267;52.234;7.444;2023-02-16T00:26:18;35.63;;;15.52;;
31660;SDS011;18267;52.234;7.444;2023-02-16T00:28:50;43.92;;;16.08;;
31660;SDS011;18267;52.234;7.444;2023-02-16T00:31:22;31.95;;;16.38;;
31660;SDS011;18267;52.234;7.444;2023-02-16T00:33:51;40.83;;;16.60;;
31660;SDS011;18267;52.234;7.444;2023-02-16T00:36:17;41.55;;;15.38;;
31660;SDS011;18267;52.234;7.444;2023-02-16T00:38:42;41.95;;;16.55;;
31660;SDS011;18267;52.234;7.444;2023-02-16T00:41:13;50.25;;;17.35;;
31660;SDS011;18267;52.234;7.444;2023-02-16T00:44:01;35.88;;;16.10;;
31660;SDS011;18267;52.234;7.444;2023-02-16T00:46:27;37.38;;;16.23;;
31660;SDS011;18267;52.234;7.444;2023-02-16T00:48:53;44.90;;;16.70;;
31660;SDS011;18267;52.234;7.444;2023-02-16T00:51:18;38.88;;;15.85;;
31660;SDS011;18267;52.234;7.444;2023-02-16T00:53:44;43.88;;;17.73;;
31660;SDS011;18267;52.234;7.444;2023-02-16T00:56:10;41.15;;;16.23;;
31660;SDS011;18267;52.234;7.444;2023-02-16T00:58:40;36.70;;;15.35;;
31660;SDS011;18267;52.234;7.444;2023-02-16T01:01:12;37.75;;;16.10;;
31660;SDS011;18267;52.234;7.444;2023-02-16T01:03:39;48.33;;;16.15;;
31660;SDS011;18267;52.234;7.444;2023-02-16T01:06:05;35.63;;;16.92;;
31660;SDS011;18267;52.234;7.444;2023-02-16T01:08:50;35.22;;;16.02;;
31660;SDS011;18267;52.234;7.444;2023-02-16T01:11:36;40.72;;;16.63;;
31660;SDS011;18267;52.234;7.444;2023-02-16T01:14:02;45.50;;;16.67;;
31660;SDS011;18267;52.234;7.444;2023-02-16T01:16:36;40.53;;;16.08;;
31660;SDS011;18267;52.234;7.444;2023-02-16T01:19:03;43.90;;;15.20;;
31660;SDS011;18267;52.234;7.444;2023-02-16T01:21:29;41.40;;;16.55;;
31660;SDS011;18267;52.234;7.444;2023-02-16T01:23:54;39.33;;;14.98;;
31660;SDS011;18267;52.234;7.444;2023-02-16T01:26:20;38.45;;;16.58;;
31660;SDS011;18267;52.234;7.444;2023-02-16T01:28:46;38.63;;;17.27;;
31660;SDS011;18267;52.234;7.444;2023-02-16T01:31:12;38.35;;;16.45;;
31660;SDS011;18267;52.234;7.444;2023-02-16T01:33:39;48.08;;;16.67;;
31660;SDS011;18267;52.234;7.444;2023-02-16T01:36:06;40.40;;;15.55;;
31660;SDS011;18267;52.234;7.444;2023-02-16T01:38:46;45.90;;;17.15;;
31660;SDS011;18267;52.234;7.444;2023-02-16T01:41:28;36.35;;;16.38;;
31660;SDS011;18267;52.234;7.444;2023-02-16T01:44:42;39.50;;;15.98;;
31660;SDS011;18267;52.234;7.444;2023-02-16T01:50:22;38.45;;;14.70;;
31660;SDS011;18267;52.234;7.444;2023-02-16T01:52:52;34.42;;;16.10;;
31660;SDS011;18267;52.234;7.444;2023-02-16T01:58:04;37.13;;;16.08;;
31660;SDS011;18267;52.234;7.444;2023-02-16T02:03:20;35.30;;;16.17;;
31660;SDS011;18267;52.234;7.444;2023-02-16T02:06:09;37.17;;;15.13;;
31660;SDS011;18267;52.234;7.444;2023-02-16T02:08:39;38.65;;;16.92;;
31660;SDS011;18267;52.234;7.444;2023-02-16T02:11:21;38.65;;;16.52;;
31660;SDS011;18267;52.234;7.444;2023-02-16T02:13:57;36.88;;;16.23;;
31660;SDS011;18267;52.234;7.444;2023-02-16T02:16:27;36.13;;;16.15;;
31660;SDS011;18267;52.234;7.444;2023-02-16T02:18:53;38.20;;;15.45;;
31660;SDS011;18267;52.234;7.444;2023-02-16T02:21:45;38.05;;;16.55;;
31660;SDS011;18267;52.234;7.444;2023-02-16T02:27:40;37.50;;;15.55;;
31660;SDS011;18267;52.234;7.444;2023-02-16T02:30:26;36.00;;;16.83;;
31660;SDS011;18267;52.234;7.444;2023-02-16T02:33:16;37.97;;;16.25;;
31660;SDS011;18267;52.234;7.444;2023-02-16T02:36:08;37.72;;;16.40;;
31660;SDS011;18267;52.234;7.444;2023-02-16T02:44:28;37.33;;;16.52;;
31660;SDS011;18267;52.234;7.444;2023-02-16T02:46:55;42.88;;;16.33;;
31660;SDS011;18267;52.234;7.444;2023-02-16T02:49:21;37.97;;;17.45;;
31660;SDS011;18267;52.234;7.444;2023-02-16T02:51:47;40.25;;;16.50;;
31660;SDS011;18267;52.234;7.444;2023-02-16T02:57:38;43.30;;;15.95;;
31660;SDS011;18267;52.234;7.444;2023-02-16T03:00:32;43.53;;;17.58;;
31660;SDS011;18267;52.234;7.444;2023-02-16T03:05:59;45.42;;;17.95;;
31660;SDS011;18267;52.234;7.444;2023-02-16T03:08:36;44.90;;;17.95;;
31660;SDS011;18267;52.234;7.444;2023-02-16T03:11:15;40.67;;;16.90;;
31660;SDS011;18267;52.234;7.444;2023-02-16T03:16:38;41.33;;;17.58;;
31660;SDS011;18267;52.234;7.444;2023-02-16T03:19:14;35.05;;;16.85;;
31660;SDS011;18267;52.234;7.444;2023-02-16T03:22:00;43.10;;;17.85;;
31660;SDS011;18267;52.234;7.444;2023-02-16T03:24:46;45.95;;;17.85;;
31660;SDS011;18267;52.234;7.444;2023-02-16T03:27:32;46.47;;;17.92;;
31660;SDS011;18267;52.234;7.444;2023-02-16T03:30:21;36.95;;;16.95;;
31660;SDS011;18267;52.234;7.444;2023-02-16T03:32:48;34.75;;;16.58;;
31660;SDS011;18267;52.234;7.444;2023-02-16T03:35:15;42.22;;;18.30;;
31660;SDS011;18267;52.234;7.444;2023-02-16T03:37:41;48.80;;;17.38;;
31660;SDS011;18267;52.234;7.444;2023-02-16T03:40:09;42.97;;;17.48;;
31660;SDS011;18267;52.234;7.444;2023-02-16T03:42:52;40.70;;;17.23;;
31660;SDS011;18267;52.234;7.444;2023-02-16T03:45:20;43.97;;;17.83;;
31660;SDS011;18267;52.234;7.444;2023-02-16T03:47:47;38.03;;;17.10;;
31660;SDS011;18267;52.234;7.444;2023-02-16T03:50:13;48.88;;;17.77;;
31660;SDS011;18267;52.234;7.444;2023-02-16T03:52:39;44.85;;;18.25;;
31660;SDS011;18267;52.234;7.444;2023-02-16T03:55:04;50.15;;;17.98;;
31660;SDS011;18267;52.234;7.444;2023-02-16T03:57:30;41.20;;;18.23;;
31660;SDS011;18267;52.234;7.444;2023-02-16T03:59:55;46.92;;;19.20;;
31660;SDS011;18267;52.234;7.444;2023-02-16T04:02:22;44.90;;;17.63;;
31660;SDS011;18267;52.234;7.444;2023-02-16T04:04:49;45.42;;;19.00;;
31660;SDS011;18267;52.234;7.444;2023-02-16T04:07:15;42.35;;;18.25;;
31660;SDS011;18267;52.234;7.444;2023-02-16T04:09:40;42.38;;;18.35;;
31660;SDS011;18267;52.234;7.444;2023-02-16T04:12:06;43.55;;;17.17;;
31660;SDS011;18267;52.234;7.444;2023-02-16T04:14:51;41.63;;;18.33;;
31660;SDS011;18267;52.234;7.444;2023-02-16T04:17:17;42.85;;;19.05;;
31660;SDS011;18267;52.234;7.444;2023-02-16T04:19:42;36.75;;;17.73;;
31660;SDS011;18267;52.234;7.444;2023-02-16T04:22:08;46.17;;;18.80;;
31660;SDS011;18267;52.234;7.444;2023-02-16T04:24:33;42.13;;;17.77;;
31660;SDS011;18267;52.234;7.444;2023-02-16T04:26:59;41.25;;;18.38;;
31660;SDS011;18267;52.234;7.444;2023-02-16T04:29:24;48.22;;;18.98;;
31660;SDS011;18267;52.234;7.444;2023-02-16T04:31:50;48.40;;;18.55;;
31660;SDS011;18267;52.234;7.444;2023-02-16T04:34:15;39.55;;;18.15;;
31660;SDS011;18267;52.234;7.444;2023-02-16T04:36:41;48.70;;;17.63;;
31660;SDS011;18267;52.234;7.444;2023-02-16T04:39:06;51.22;;;21.13;;
31660;SDS011;18267;52.234;7.444;2023-02-16T04:41:32;43.35;;;17.40;;
31660;SDS011;18267;52.234;7.444;2023-02-16T04:43:57;42.55;;;18.63;;
31660;SDS011;18267;52.234;7.444;2023-02-16T04:46:23;47.85;;;18.33;;
31660;SDS011;18267;52.234;7.444;2023-02-16T04:48:48;41.97;;;18.25;;
31660;SDS011;18267;52.234;7.444;2023-02-16T04:51:14;44.35;;;17.17;;
31660;SDS011;18267;52.234;7.444;2023-02-16T04:53:39;43.20;;;18.50;;
31660;SDS011;18267;52.234;7.444;2023-02-16T04:56:08;44.47;;;17.98;;
31660;SDS011;18267;52.234;7.444;2023-02-16T04:58:34;47.97;;;18.90;;
31660;SDS011;18267;52.234;7.444;2023-02-16T05:01:00;45.42;;;18.63;;
31660;SDS011;18267;52.234;7.444;2023-02-16T05:03:26;49.15;;;18.17;;
31660;SDS011;18267;52.234;7.444;2023-02-16T05:05:51;45.42;;;19.30;;
31660;SDS011;18267;52.234;7.444;2023-02-16T05:08:17;43.40;;;18.30;;
31660;SDS011;18267;52.234;7.444;2023-02-16T05:10:42;39.40;;;17.88;;
31660;SDS011;18267;52.234;7.444;2023-02-16T05:13:09;50.30;;;18.83;;
31660;SDS011;18267;52.234;7.444;2023-02-16T05:15:53;42.75;;;19.17;;
31660;SDS011;18267;52.234;7.444;2023-02-16T05:18:19;47.28;;;18.88;;
31660;SDS011;18267;52.234;7.444;2023-02-16T05:20:45;47.25;;;19.42;;
31660;SDS011;18267;52.234;7.444;2023-02-16T05:23:29;44.05;;;18.58;;
31660;SDS011;18267;52.234;7.444;2023-02-16T05:25:55;54.17;;;21.10;;
31660;SDS011;18267;52.234;7.444;2023-02-16T05:28:20;44.67;;;18.05;;
31660;SDS011;18267;52.234;7.444;2023-02-16T05:30:46;42.83;;;18.17;;
31660;SDS011;18267;52.234;7.444;2023-02-16T05:33:11;45.25;;;19.73;;
31660;SDS011;18267;52.234;7.444;2023-02-16T05:35:37;46.28;;;19.02;;
31660;SDS011;18267;52.234;7.444;2023-02-16T05:38:02;47.47;;;19.23;;
31660;SDS011;18267;52.234;7.444;2023-02-16T05:40:28;42.97;;;19.20;;
31660;SDS011;18267;52.234;7.444;2023-02-16T05:42:53;46.00;;;18.38;;
31660;SDS011;18267;52.234;7.444;2023-02-16T05:45:19;50.65;;;19.90;;
31660;SDS011;18267;52.234;7.444;2023-02-16T05:47:47;48.38;;;18.80;;
31660;SDS011;18267;52.234;7.444;2023-02-16T05:50:13;43.38;;;18.33;;
31660;SDS011;18267;52.234;7.444;2023-02-16T05:52:38;47.22;;;21.83;;
31660;SDS011;18267;52.234;7.444;2023-02-16T05:55:04;43.50;;;19.00;;
31660;SDS011;18267;52.234;7.444;2023-02-16T05:57:30;42.38;;;18.50;;
31660;SDS011;18267;52.234;7.444;2023-02-16T05:59:58;46.22;;;19.50;;
31660;SDS011;18267;52.234;7.444;2023-02-16T06:02:24;43.33;;;18.88;;
31660;SDS011;18267;52.234;7.444;2023-02-16T06:04:49;45.33;;;19.30;;
31660;SDS011;18267;52.234;7.444;2023-02-16T06:07:15;48.75;;;19.02;;
31660;SDS011;18267;52.234;7.444;2023-02-16T06:09:40;39.30;;;18.40;;
31660;SDS011;18267;52.234;7.444;2023-02-16T06:12:06;42.58;;;17.70;;
31660;SDS011;18267;52.234;7.444;2023-02-16T06:14:31;46.25;;;19.60;;
31660;SDS011;18267;52.234;7.444;2023-02-16T06:16:57;42.08;;;18.20;;
31660;SDS011;18267;52.234;7.444;2023-02-16T06:19:22;41.17;;;19.02;;
31660;SDS011;18267;52.234;7.444;2023-02-16T06:21:49;48.42;;;19.02;;
31660;SDS011;18267;52.234;7.444;2023-02-16T06:24:14;43.90;;;18.50;;
31660;SDS011;18267;52.234;7.444;2023-02-16T06:26:40;39.90;;;18.52;;
31660;SDS011;18267;52.234;7.444;2023-02-16T06:29:06;40.30;;;18.75;;
31660;SDS011;18267;52.234;7.444;2023-02-16T06:31:31;42.97;;;18.50;;
31660;SDS011;18267;52.234;7.444;2023-02-16T06:33:57;41.13;;;20.23;;
31660;SDS011;18267;52.234;7.444;2023-02-16T06:36:23;44.40;;;18.98;;
31660;SDS011;18267;52.234;7.444;2023-02-16T06:38:49;55.95;;;19.65;;
31660;SDS011;18267;52.234;7.444;2023-02-16T06:41:15;48.85;;;20.48;;
31660;SDS011;18267;52.234;7.444;2023-02-16T06:43:56;57.72;;;21.50;;
31660;SDS011;18267;52.234;7.444;2023-02-16T06:46:23;50.25;;;20.35;;
31660;SDS011;18267;52.234;7.444;2023-02-16T06:48:48;48.05;;;19.23;;
31660;SDS011;18267;52.234;7.444;2023-02-16T06:51:15;50.20;;;19.67;;
31660;SDS011;18267;52.234;7.444;2023-02-16T06:53:41;48.42;;;19.80;;
31660;SDS011;18267;52.234;7.444;2023-02-16T06:56:07;51.97;;;20.45;;
31660;SDS011;18267;52.234;7.444;2023-02-16T06:58:32;50.17;;;21.38;;
31660;SDS011;18267;52.234;7.444;2023-02-16T07:00:58;42.33;;;18.67;;
31660;SDS011;18267;52.234;7.444;2023-02-16T07:03:23;43.72;;;19.85;;
31660;SDS011;18267;52.234;7.444;2023-02-16T07:05:49;47.40;;;20.05;;
31660;SDS011;18267;52.234;7.444;2023-02-16T07:08:14;48.67;;;20.23;;
31660;SDS011;18267;52.234;7.444;2023-02-16T07:10:43;43.90;;;20.85;;
31660;SDS011;18267;52.234;7.444;2023-02-16T07:13:10;45.30;;;21.30;;
31660;SDS011;18267;52.234;7.444;2023-02-16T07:15:35;52.00;;;21.35;;
31660;SDS011;18267;52.234;7.444;2023-02-16T07:18:01;53.15;;;21.30;;
31660;SDS011;18267;52.234;7.444;2023-02-16T07:20:27;50.65;;;20.20;;
31660;SDS011;18267;52.234;7.444;2023-02-16T07:22:53;50.47;;;20.90;;
31660;SDS011;18267;52.234;7.444;2023-02-16T07:25:18;52.22;;;22.52;;
31660;SDS011;18267;52.234;7.444;2023-02-16T07:27:44;52.20;;;21.15;;
31660;SDS011;18267;52.234;7.444;2023-02-16T07:30:10;55.85;;;21.48;;
31660;SDS011;18267;52.234;7.444;2023-02-16T07:32:36;47.78;;;21.85;;
31660;SDS011;18267;52.234;7.444;2023-02-16T07:35:02;52.13;;;22.33;;
31660;SDS011;18267;52.234;7.444;2023-02-16T07:37:28;49.58;;;21.80;;
31660;SDS011;18267;52.234;7.444;2023-02-16T07:39:54;51.20;;;22.42;;
31660;SDS011;18267;52.234;7.444;2023-02-16T07:42:22;45.22;;;20.02;;
31660;SDS011;18267;52.234;7.444;2023-02-16T07:44:48;47.22;;;21.33;;
31660;SDS011;18267;52.234;7.444;2023-02-16T07:47:13;54.05;;;22.17;;
31660;SDS011;18267;52.234;7.444;2023-02-16T07:49:39;44.90;;;21.70;;
31660;SDS011;18267;52.234;7.444;2023-02-16T07:52:05;50.20;;;21.42;;
31660;SDS011;18267;52.234;7.444;2023-02-16T07:54:48;55.78;;;22.55;;
31660;SDS011;18267;52.234;7.444;2023-02-16T07:57:36;57.03;;;23.10;;
31660;SDS011;18267;52.234;7.444;2023-02-16T08:00:03;54.83;;;22.98;;
31660;SDS011;18267;52.234;7.444;2023-02-16T08:02:29;55.83;;;21.95;;
31660;SDS011;18267;52.234;7.444;2023-02-16T08:04:55;53.90;;;22.23;;
31660;SDS011;18267;52.234;7.444;2023-02-16T08:07:21;54.45;;;23.42;;
31660;SDS011;18267;52.234;7.444;2023-02-16T08:09:46;48.22;;;21.60;;
31660;SDS011;18267;52.234;7.444;2023-02-16T08:12:13;49.65;;;23.23;;
31660;SDS011;18267;52.234;7.444;2023-02-16T08:14:40;49.70;;;21.20;;
31660;SDS011;18267;52.234;7.444;2023-02-16T08:17:06;48.47;;;21.10;;
31660;SDS011;18267;52.234;7.444;2023-02-16T08:19:31;48.75;;;20.83;;
31660;SDS011;18267;52.234;7.444;2023-02-16T08:21:58;51.38;;;22.27;;
31660;SDS011;18267;52.234;7.444;2023-02-16T08:24:26;47.15;;;20.90;;
31660;SDS011;18267;52.234;7.444;2023-02-16T08:26:51;55.50;;;22.58;;
31660;SDS011;18267;52.234;7.444;2023-02-16T08:29:18;51.30;;;22.67;;
31660;SDS011;18267;52.234;7.444;2023-02-16T08:31:45;52.88;;;21.20;;
31660;SDS011;18267;52.234;7.444;2023-02-16T08:34:12;46.47;;;22.30;;
31660;SDS011;18267;52.234;7.444;2023-02-16T08:36:40;56.63;;;22.73;;
31660;SDS011;18267;52.234;7.444;2023-02-16T08:39:15;55.10;;;21.65;;
31660;SDS011;18267;52.234;7.444;2023-02-16T08:41:43;41.17;;;20.25;;
31660;SDS011;18267;52.234;7.444;2023-02-16T08:44:10;60.15;;;21.85;;
31660;SDS011;18267;52.234;7.444;2023-02-16T08:46:37;43.10;;;20.00;;
31660;SDS011;18267;52.234;7.444;2023-02-16T08:49:05;50.20;;;21.85;;
31660;SDS011;18267;52.234;7.444;2023-02-16T08:51:32;49.95;;;22.00;;
31660;SDS011;18267;52.234;7.444;2023-02-16T08:54:00;43.88;;;19.70;;
31660;SDS011;18267;52.234;7.444;2023-02-16T08:56:27;47.65;;;20.88;;
31660;SDS011;18267;52.234;7.444;2023-02-16T08:58:57;41.10;;;20.25;;
31660;SDS011;18267;52.234;7.444;2023-02-16T09:01:23;41.90;;;20.58;;
31660;SDS011;18267;52.234;7.444;2023-02-16T09:03:48;41.33;;;19.17;;
31660;SDS011;18267;52.234;7.444;2023-02-16T09:06:15;45.20;;;19.95;;
31660;SDS011;18267;52.234;7.444;2023-02-16T09:08:45;48.10;;;20.40;;
31660;SDS011;18267;52.234;7.444;2023-02-16T09:11:17;43.75;;;20.50;;
31660;SDS011;18267;52.234;7.444;2023-02-16T09:13:43;38.95;;;18.50;;
31660;SDS011;18267;52.234;7.444;2023-02-16T09:16:11;47.22;;;19.90;;
31660;SDS011;18267;52.234;7.444;2023-02-16T09:18:40;45.97;;;20.30;;
31660;SDS011;18267;52.234;7.444;2023-02-16T09:21:06;45.05;;;21.35;;
31660;SDS011;18267;52.234;7.444;2023-02-16T09:23:38;47.95;;;19.63;;
31660;SDS011;18267;52.234;7.444;2023-02-16T09:26:06;37.85;;;18.45;;
31660;SDS011;18267;52.234;7.444;2023-02-16T09:28:33;40.90;;;19.48;;
31660;SDS011;18267;52.234;7.444;2023-02-16T09:31:07;42.58;;;19.30;;
31660;SDS011;18267;52.234;7.444;2023-02-16T09:33:33;43.83;;;19.83;;
31660;SDS011;18267;52.234;7.444;2023-02-16T09:36:02;40.60;;;18.25;;
31660;SDS011;18267;52.234;7.444;2023-02-16T09:38:29;47.58;;;20.17;;
31660;SDS011;18267;52.234;7.444;2023-02-16T09:40:55;41.08;;;18.25;;
31660;SDS011;18267;52.234;7.444;2023-02-16T09:43:28;42.45;;;19.38;;
31660;SDS011;18267;52.234;7.444;2023-02-16T09:45:55;42.93;;;19.57;;
31660;SDS011;18267;52.234;7.444;2023-02-16T09:51:02;40.78;;;19.23;;
31660;SDS011;18267;52.234;7.444;2023-02-16T09:53:37;46.42;;;20.40;;
31660;SDS011;18267;52.234;7.444;2023-02-16T09:58:45;51.20;;;20.80;;
31660;SDS011;18267;52.234;7.444;2023-02-16T10:09:51;44.78;;;18.25;;
31660;SDS011;18267;52.234;7.444;2023-02-16T10:12:20;48.08;;;19.80;;
31660;SDS011;18267;52.234;7.444;2023-02-16T10:14:51;53.83;;;19.55;;
31660;SDS011;18267;52.234;7.444;2023-02-16T10:17:35;45.20;;;19.50;;
31660;SDS011;18267;52.234;7.444;2023-02-16T10:20:39;47.42;;;18.30;;
31660;SDS011;18267;52.234;7.444;2023-02-16T10:23:23;43.83;;;19.52;;
31660;SDS011;18267;52.234;7.444;2023-02-16T10:26:05;42.42;;;18.55;;
31660;SDS011;18267;52.234;7.444;2023-02-16T10:28:50;43.42;;;20.55;;
31660;SDS011;18267;52.234;7.444;2023-02-16T10:33:57;35.08;;;18.50;;
31660;SDS011;18267;52.234;7.444;2023-02-16T10:36:38;38.20;;;18.30;;
31660;SDS011;18267;52.234;7.444;2023-02-16T10:39:43;38.55;;;17.88;;
31660;SDS011;18267;52.234;7.444;2023-02-16T10:42:33;44.97;;;19.75;;
31660;SDS011;18267;52.234;7.444;2023-02-16T10:45:37;34.33;;;17.75;;
31660;SDS011;18267;52.234;7.444;2023-02-16T10:48:07;46.20;;;19.85;;
31660;SDS011;18267;52.234;7.444;2023-02-16T10:50:45;40.10;;;18.88;;
31660;SDS011;18267;52.234;7.444;2023-02-16T10:53:33;35.03;;;17.58;;
31660;SDS011;18267;52.234;7.444;2023-02-16T10:59:15;45.55;;;19.52;;
31660;SDS011;18267;52.234;7.444;2023-02-16T11:01:51;38.47;;;18.23;;
31660;SDS011;18267;52.234;7.444;2023-02-16T11:04:32;42.33;;;18.63;;
31660;SDS011;18267;52.234;7.444;2023-02-16T11:07:10;47.13;;;19.85;;
31660;SDS011;18267;52.234;7.444;2023-02-16T11:09:38;41.08;;;18.40;;
31660;SDS011;18267;52.234;7.444;2023-02-16T11:14:51;40.25;;;18.98;;
31660;SDS011;18267;52.234;7.444;2023-02-16T11:17:22;39.42;;;19.15;;
31660;SDS011;18267;52.234;7.444;2023-02-16T11:19:51;40.30;;;18.63;;
31660;SDS011;18267;52.234;7.444;2023-02-16T11:22:29;41.00;;;18.75;;
31660;SDS011;18267;52.234;7.444;2023-02-16T11:27:57;46.10;;;18.67;;
31660;SDS011;18267;52.234;7.444;2023-02-16T11:30:27;46.08;;;19.60;;
31660;SDS011;18267;52.234;7.444;2023-02-16T11:32:56;45.13;;;18.88;;
31660;SDS011;18267;52.234;7.444;2023-02-16T11:35:24;47.47;;;19.20;;
31660;SDS011;18267;52.234;7.444;2023-02-16T11:37:50;43.72;;;19.67;;
31660;SDS011;18267;52.234;7.444;2023-02-16T11:40:22;43.30;;;20.38;;
31660;SDS011;18267;52.234;7.444;2023-02-16T11:42:57;51.50;;;21.40;;
31660;SDS011;18267;52.234;7.444;2023-02-16T11:45:28;47.20;;;20.92;;
31660;SDS011;18267;52.234;7.444;2023-02-16T11:50:26;47.60;;;18.88;;
31660;SDS011;18267;52.234;7.444;2023-02-16T11:55:34;53.88;;;20.20;;
31660;SDS011;18267;52.234;7.444;2023-02-16T12:03:52;44.35;;;20.40;;
31660;SDS011;18267;52.234;7.444;2023-02-16T12:11:58;47.20;;;19.65;;
31660;SDS011;18267;52.234;7.444;2023-02-16T12:19:59;52.75;;;21.10;;
31660;SDS011;18267;52.234;7.444;2023-02-16T12:22:37;61.55;;;21.02;;
31660;SDS011;18267;52.234;7.444;2023-02-16T12:25:18;52.15;;;20.98;;
31660;SDS011;18267;52.234;7.444;2023-02-16T12:27:59;60.05;;;21.73;;
31660;SDS011;18267;52.234;7.444;2023-02-16T12:36:09;54.50;;;20.27;;
31660;SDS011;18267;52.234;7.444;2023-02-16T12:44:07;63.92;;;20.45;;
31660;SDS011;18267;52.234;7.444;2023-02-16T12:46:56;52.55;;;21.17;;
31660;SDS011;18267;52.234;7.444;2023-02-16T12:49:34;46.58;;;20.95;;
31660;SDS011;18267;52.234;7.444;2023-02-16T12:52:36;53.75;;;20.98;;
31660;SDS011;18267;52.234;7.444;2023-02-16T12:55:26;43.08;;;19.73;;
31660;SDS011;18267;52.234;7.444;2023-02-16T13:00:44;49.17;;;21.17;;
31660;SDS011;18267;52.234;7.444;2023-02-16T13:14:24;54.65;;;22.48;;
31660;SDS011;18267;52.234;7.444;2023-02-16T13:16:54;53.28;;;23.80;;
31660;SDS011;18267;52.234;7.444;2023-02-16T13:19:26;50.20;;;23.13;;
31660;SDS011;18267;52.234;7.444;2023-02-16T13:33:45;57.75;;;23.15;;
31660;SDS011;18267;52.234;7.444;2023-02-16T13:39:05;52.78;;;24.30;;
31660;SDS011;18267;52.234;7.444;2023-02-16T13:44:31;46.75;;;22.27;;
31660;SDS011;18267;52.234;7.444;2023-02-16T13:47:19;47.67;;;23.75;;
31660;SDS011;18267;52.234;7.444;2023-02-16T13:49:55;49.33;;;23.48;;
31660;SDS011;18267;52.234;7.444;2023-02-16T13:55:04;54.67;;;25.27;;
31660;SDS011;18267;52.234;7.444;2023-02-16T14:00:32;53.65;;;23.50;;
31660;SDS011;18267;52.234;7.444;2023-02-16T14:03:11;49.33;;;23.23;;
31660;SDS011;18267;52.234;7.444;2023-02-16T14:05:41;48.58;;;23.45;;
31660;SDS011;18267;52.234;7.444;2023-02-16T14:08:24;52.22;;;24.00;;
31660;SDS011;18267;52.234;7.444;2023-02-16T14:13:31;53.67;;;23.88;;
31660;SDS011;18267;52.234;7.444;2023-02-16T14:15:58;48.28;;;23.52;;
31660;SDS011;18267;52.234;7.444;2023-02-16T14:18:36;51.50;;;22.88;;
31660;SDS011;18267;52.234;7.444;2023-02-16T14:21:15;52.40;;;23.45;;
31660;SDS011;18267;52.234;7.444;2023-02-16T14:23:44;50.00;;;23.83;;
31660;SDS011;18267;52.234;7.444;2023-02-16T14:26:22;46.67;;;23.58;;
31660;SDS011;18267;52.234;7.444;2023-02-16T14:29:01;47.33;;;22.63;;
31660;SDS011;18267;52.234;7.444;2023-02-16T14:32:02;52.78;;;22.83;;
31660;SDS011;18267;52.234;7.444;2023-02-16T14:34:33;51.97;;;23.30;;
31660;SDS011;18267;52.234;7.444;2023-02-16T14:37:08;42.25;;;22.25;;
31660;SDS011;18267;52.234;7.444;2023-02-16T14:39:40;49.50;;;22.80;;
31660;SDS011;18267;52.234;7.444;2023-02-16T14:42:13;46.92;;;23.67;;
31660;SDS011;18267;52.234;7.444;2023-02-16T14:48:10;50.78;;;23.67;;
31660;SDS011;18267;52.234;7.444;2023-02-16T14:56:45;47.20;;;21.00;;
31660;SDS011;18267;52.234;7.444;2023-02-16T14:59:22;46.88;;;22.05;;
31660;SDS011;18267;52.234;7.444;2023-02-16T15:02:22;42.58;;;21.55;;
31660;SDS011;18267;52.234;7.444;2023-02-16T15:04:51;41.03;;;21.40;;
31660;SDS011;18267;52.234;7.444;2023-02-16T15:07:17;47.70;;;21.90;;
31660;SDS011;18267;52.234;7.444;2023-02-16T15:09:43;41.45;;;20.77;;
31660;SDS011;18267;52.234;7.444;2023-02-16T15:12:10;47.03;;;20.25;;
31660;SDS011;18267;52.234;7.444;2023-02-16T15:14:53;46.95;;;21.92;;
31660;SDS011;18267;52.234;7.444;2023-02-16T15:17:25;44.13;;;21.17;;
31660;SDS011;18267;52.234;7.444;2023-02-16T15:19:56;47.92;;;21.00;;
31660;SDS011;18267;52.234;7.444;2023-02-16T15:22:28;43.25;;;20.42;;
31660;SDS011;18267;52.234;7.444;2023-02-16T15:25:19;47.75;;;22.17;;
31660;SDS011;18267;52.234;7.444;2023-02-16T15:27:59;44.72;;;20.27;;
31660;SDS011;18267;52.234;7.444;2023-02-16T15:33:05;42.58;;;19.88;;
31660;SDS011;18267;52.234;7.444;2023-02-16T15:35:39;41.13;;;19.20;;
31660;SDS011;18267;52.234;7.444;2023-02-16T15:40:34;43.10;;;21.30;;
31660;SDS011;18267;52.234;7.444;2023-02-16T15:45:49;43.63;;;20.60;;
31660;SDS011;18267;52.234;7.444;2023-02-16T15:48:23;38.08;;;19.85;;
31660;SDS011;18267;52.234;7.444;2023-02-16T15:50:54;41.00;;;18.55;;
31660;SDS011;18267;52.234;7.444;2023-02-16T15:53:50;47.25;;;20.10;;
31660;SDS011;18267;52.234;7.444;2023-02-16T15:56:22;40.00;;;20.70;;
31660;SDS011;18267;52.234;7.444;2023-02-16T16:02:17;38.35;;;19.30;;
31660;SDS011;18267;52.234;7.444;2023-02-16T16:04:55;47.67;;;21.85;;
31660;SDS011;18267;52.234;7.444;2023-02-16T16:07:32;39.97;;;21.45;;
31660;SDS011;18267;52.234;7.444;2023-02-16T16:10:02;47.35;;;21.17;;
31660;SDS011;18267;52.234;7.444;2023-02-16T16:12:35;50.35;;;23.75;;
31660;SDS011;18267;52.234;7.444;2023-02-16T16:15:01;44.17;;;20.02;;
31660;SDS011;18267;52.234;7.444;2023-02-16T16:17:29;44.03;;;21.65;;
31660;SDS011;18267;52.234;7.444;2023-02-16T16:19:57;46.45;;;22.33;;
31660;SDS011;18267;52.234;7.444;2023-02-16T16:22:43;42.15;;;21.70;;
31660;SDS011;18267;52.234;7.444;2023-02-16T16:28:12;44.60;;;21.65;;
31660;SDS011;18267;52.234;7.444;2023-02-16T16:33:51;46.83;;;21.77;;
31660;SDS011;18267;52.234;7.444;2023-02-16T16:36:30;50.75;;;22.20;;
31660;SDS011;18267;52.234;7.444;2023-02-16T16:39:08;44.58;;;21.42;;
31660;SDS011;18267;52.234;7.444;2023-02-16T16:41:47;47.70;;;23.35;;
31660;SDS011;18267;52.234;7.444;2023-02-16T16:44:31;52.97;;;22.92;;
31660;SDS011;18267;52.234;7.444;2023-02-16T16:49:47;48.53;;;23.27;;
31660;SDS011;18267;52.234;7.444;2023-02-16T16:55:19;40.83;;;22.50;;
31660;SDS011;18267;52.234;7.444;2023-02-16T16:57:51;52.17;;;23.98;;
31660;SDS011;18267;52.234;7.444;2023-02-16T17:00:19;50.00;;;22.90;;
31660;SDS011;18267;52.234;7.444;2023-02-16T17:02:45;45.58;;;22.60;;
31660;SDS011;18267;52.234;7.444;2023-02-16T17:05:11;53.78;;;24.48;;
31660;SDS011;18267;52.234;7.444;2023-02-16T17:07:37;50.35;;;23.88;;
31660;SDS011;18267;52.234;7.444;2023-02-16T17:10:03;49.45;;;23.88;;
31660;SDS011;18267;52.234;7.444;2023-02-16T17:12:29;57.42;;;23.70;;
31660;SDS011;18267;52.234;7.444;2023-02-16T17:14:56;47.50;;;23.55;;
31660;SDS011;18267;52.234;7.444;2023-02-16T17:17:21;48.72;;;23.40;;
31660;SDS011;18267;52.234;7.444;2023-02-16T17:19:47;48.42;;;23.27;;
31660;SDS011;18267;52.234;7.444;2023-02-16T17:24:38;47.53;;;22.88;;